createdAt,value
2018-10-12T06:56:11.748Z,42.53
2018-10-12T06:58:40.091Z,37.47
2018-10-12T07:01:08.595Z,23.87
2018-10-12T07:03:36.991Z,18.50
2018-10-12T07:06:05.421Z,29.60
2018-10-12T07:08:37.882Z,27.23
2018-10-12T07:11:07.442Z,22.83
2018-10-12T07:13:40.157Z,34.70
2018-10-12T07:16:12.771Z,38.60
2018-10-12T07:18:41.306Z,39.80
2018-10-12T07:21:09.722Z,22.87
2018-10-12T07:23:38.148Z,22.53
2018-10-12T07:26:06.792Z,19.17
2018-10-12T07:28:35.403Z,19.37
2018-10-12T07:31:03.815Z,28.40
2018-10-12T07:33:32.353Z,21.53
2018-10-12T07:36:01.164Z,25.63
2018-10-12T07:38:29.225Z,26.30
2018-10-12T07:40:57.599Z,22.37
2018-10-12T07:43:25.959Z,18.40
2018-10-12T07:45:54.371Z,20.80
2018-10-12T07:48:22.754Z,17.60
2018-10-12T07:50:51.110Z,24.17
2018-10-12T07:53:19.554Z,18.97
2018-10-12T07:55:47.900Z,23.00
2018-10-12T07:58:16.249Z,17.63
2018-10-12T08:00:44.671Z,17.60
2018-10-12T08:03:14.099Z,20.67
2018-10-12T08:05:42.580Z,20.70
2018-10-12T08:08:11.077Z,22.93
2018-10-12T08:10:39.491Z,21.47
2018-10-12T08:13:07.853Z,23.50
2018-10-12T08:15:37.406Z,25.90
2018-10-12T08:18:07.187Z,21.67
2018-10-12T08:20:35.700Z,18.33
2018-10-12T08:23:04.142Z,16.60
2018-10-12T08:25:32.601Z,21.03
2018-10-12T08:28:01.331Z,20.93
2018-10-12T08:30:29.697Z,19.50
2018-10-12T08:32:58.158Z,20.27
2018-10-12T08:35:26.670Z,17.93
2018-10-12T08:37:55.051Z,18.20
2018-10-12T08:40:23.478Z,15.20
2018-10-12T08:42:51.959Z,22.93
2018-10-12T08:45:20.455Z,17.10
2018-10-12T08:47:48.888Z,16.13
2018-10-12T08:50:17.328Z,15.13
2018-10-12T08:52:45.757Z,14.93
2018-10-12T08:55:14.132Z,15.70
2018-10-12T08:57:43.555Z,16.10
2018-10-12T09:00:12.689Z,16.80
2018-10-12T09:02:41.071Z,20.83
2018-10-12T09:05:09.568Z,13.27
2018-10-12T09:07:39.033Z,16.50
2018-10-12T09:10:07.907Z,19.23
2018-10-12T09:12:36.783Z,20.77
2018-10-12T09:15:05.262Z,19.87
2018-10-12T09:17:36.840Z,17.63
2018-10-12T09:20:05.521Z,18.30
2018-10-12T09:22:33.855Z,19.33
2018-10-12T09:25:02.236Z,18.37
2018-10-12T09:27:30.631Z,22.03
2018-10-12T09:29:58.988Z,15.63
2018-10-12T09:32:27.368Z,15.37
2018-10-12T09:34:55.788Z,19.77
2018-10-12T09:37:24.128Z,18.53
2018-10-12T09:39:52.925Z,24.00
2018-10-12T09:42:21.291Z,17.13
2018-10-12T09:44:50.119Z,14.93
2018-10-12T09:47:18.469Z,15.03
2018-10-12T09:49:46.814Z,20.90
2018-10-12T09:52:15.243Z,18.47
2018-10-12T09:54:43.660Z,19.77
2018-10-12T09:57:17.342Z,16.87
2018-10-12T09:59:45.839Z,15.77
2018-10-12T10:02:19.513Z,16.33
2018-10-12T10:04:47.844Z,13.97
2018-10-12T10:07:16.272Z,15.70
2018-10-12T10:09:44.614Z,15.50
2018-10-12T10:12:13.092Z,12.20
2018-10-12T10:14:41.520Z,13.20
2018-10-12T10:17:09.902Z,11.40
2018-10-12T10:19:38.364Z,15.60
2018-10-12T10:22:06.768Z,13.23
2018-10-12T10:24:35.189Z,16.10
2018-10-12T10:27:03.612Z,20.30
2018-10-12T10:29:31.956Z,11.50
2018-10-12T10:32:00.463Z,12.83
2018-10-12T10:34:28.814Z,8.70
2018-10-12T10:36:57.197Z,10.80
2018-10-12T10:39:25.627Z,9.57
2018-10-12T10:41:54.043Z,14.37
2018-10-12T10:44:22.511Z,12.03
2018-10-12T10:46:50.951Z,15.77
2018-10-12T10:49:19.330Z,12.73
2018-10-12T10:51:47.730Z,11.27
2018-10-12T10:54:16.156Z,11.10
2018-10-12T10:56:44.561Z,8.60
2018-10-12T10:59:12.928Z,10.20
2018-10-12T11:01:41.300Z,8.77
2018-10-12T11:04:09.798Z,7.80
2018-10-12T11:06:38.296Z,12.50
2018-10-12T11:09:08.151Z,10.50
2018-10-12T11:11:36.613Z,7.20
2018-10-12T11:14:05.099Z,8.83
2018-10-12T11:16:33.530Z,12.30
2018-10-12T11:19:01.927Z,12.17
2018-10-12T11:21:30.264Z,9.60
2018-10-12T11:23:58.678Z,10.03
2018-10-12T11:26:27.080Z,10.13
2018-10-12T11:28:55.436Z,14.27
2018-10-12T11:31:23.798Z,9.03
2018-10-12T11:33:52.234Z,11.77
2018-10-12T11:36:20.664Z,8.87
2018-10-12T11:38:49.043Z,13.63
2018-10-12T11:41:17.441Z,12.13
2018-10-12T11:43:45.836Z,10.80
2018-10-12T11:46:14.248Z,14.37
2018-10-12T11:48:42.977Z,9.23
2018-10-12T11:51:11.347Z,6.60
2018-10-12T11:53:39.729Z,6.63
2018-10-12T11:56:08.120Z,8.87
2018-10-12T11:58:36.456Z,7.27
2018-10-12T12:01:04.966Z,10.37
2018-10-12T12:03:33.345Z,8.03
2018-10-12T12:06:01.881Z,6.90
2018-10-12T12:08:30.291Z,9.83
2018-10-12T12:10:58.708Z,8.53
2018-10-12T12:13:27.133Z,8.47
2018-10-12T12:15:55.776Z,7.30
2018-10-12T12:18:24.925Z,8.63
2018-10-12T12:20:53.386Z,8.73
2018-10-12T12:23:21.912Z,9.27
2018-10-12T12:25:50.419Z,9.50
2018-10-12T12:28:18.884Z,8.67
2018-10-12T12:30:47.296Z,10.07
2018-10-12T12:33:15.811Z,4.67
2018-10-12T12:35:44.536Z,9.03
2018-10-12T12:38:12.576Z,6.57
2018-10-12T12:40:40.893Z,6.33
2018-10-12T12:43:09.323Z,7.80
2018-10-12T12:45:37.740Z,7.17
2018-10-12T12:48:06.211Z,5.80
2018-10-12T12:50:34.615Z,7.80
2018-10-12T12:53:02.958Z,5.13
2018-10-12T12:55:31.353Z,6.37
2018-10-12T12:57:59.724Z,9.60
2018-10-12T13:00:28.128Z,6.87
2018-10-12T13:02:56.471Z,6.80
2018-10-12T13:05:24.850Z,6.50
2018-10-12T13:07:53.275Z,7.20
2018-10-12T13:10:21.632Z,6.00
2018-10-12T13:12:50.051Z,9.37
2018-10-12T13:15:18.486Z,5.97
2018-10-12T13:17:46.858Z,6.13
2018-10-12T13:20:15.223Z,6.83
2018-10-12T13:22:43.584Z,5.77
2018-10-12T13:25:12.125Z,6.90
2018-10-12T13:27:40.462Z,10.40
2018-10-12T13:30:08.859Z,6.07
2018-10-12T13:32:37.215Z,8.33
2018-10-12T13:35:06.452Z,5.13
2018-10-12T13:37:34.897Z,6.63
2018-10-12T13:40:03.355Z,8.60
2018-10-12T13:42:31.803Z,8.20
2018-10-12T13:45:00.172Z,6.80
2018-10-12T13:47:28.565Z,10.10
2018-10-12T13:49:56.932Z,5.93
2018-10-12T13:52:25.299Z,4.87
2018-10-12T13:54:53.724Z,6.07
2018-10-12T13:57:22.175Z,5.97
2018-10-12T13:59:50.603Z,10.37
2018-10-12T14:02:19.054Z,8.30
2018-10-12T14:04:59.427Z,6.57
2018-10-12T14:07:28.156Z,5.20
2018-10-12T14:09:56.580Z,5.03
2018-10-12T14:12:25.133Z,6.10
2018-10-12T14:14:53.402Z,9.37
2018-10-12T14:17:21.820Z,7.50
2018-10-12T14:19:53.317Z,5.40
2018-10-12T14:22:22.738Z,8.83
2018-10-12T14:24:51.143Z,13.77
2018-10-12T14:27:19.611Z,11.20
2018-10-12T14:29:47.994Z,7.17
2018-10-12T14:32:16.397Z,9.33
2018-10-12T14:34:44.839Z,7.50
2018-10-12T14:37:13.228Z,9.73
2018-10-12T14:39:41.588Z,5.27
2018-10-12T14:42:10.159Z,9.47
2018-10-12T14:44:38.646Z,7.00
2018-10-12T14:47:07.076Z,10.53
2018-10-12T14:49:35.418Z,12.73
2018-10-12T14:52:03.900Z,8.43
2018-10-12T14:54:32.303Z,8.20
2018-10-12T14:57:00.965Z,9.47
2018-10-12T14:59:29.436Z,10.57
2018-10-12T15:01:58.036Z,8.23
2018-10-12T15:04:26.492Z,7.67
2018-10-12T15:06:54.950Z,8.73
2018-10-12T15:09:23.393Z,7.83
2018-10-12T15:11:52.165Z,8.20
2018-10-12T15:14:33.544Z,11.17
2018-10-12T15:17:03.050Z,9.83
2018-10-12T15:19:31.657Z,38.47
2018-10-12T15:22:00.245Z,39.00
2018-10-12T15:24:28.647Z,70.47
2018-10-12T15:26:57.058Z,18.83
2018-10-12T15:29:25.539Z,10.83
2018-10-12T15:31:54.113Z,9.87
2018-10-12T15:34:22.627Z,8.87
2018-10-12T15:36:51.173Z,9.20
2018-10-12T15:39:19.621Z,9.63
2018-10-12T15:41:48.153Z,5.63
2018-10-12T15:44:16.560Z,5.13
2018-10-12T15:46:46.075Z,5.63
2018-10-12T15:49:14.896Z,9.57
2018-10-12T15:51:43.379Z,11.17
2018-10-12T15:54:12.058Z,12.37
2018-10-12T15:56:40.564Z,12.30
2018-10-12T15:59:09.404Z,8.93
2018-10-12T16:01:37.806Z,7.90
2018-10-12T16:04:06.333Z,6.90
2018-10-12T16:06:35.109Z,10.33
2018-10-12T16:09:04.720Z,20.43
2018-10-12T16:11:33.127Z,23.63
2018-10-12T16:14:01.680Z,15.57
2018-10-12T16:16:30.081Z,13.27
2018-10-12T16:18:58.548Z,13.60
2018-10-12T16:21:27.708Z,18.77
2018-10-12T16:23:56.181Z,16.23
2018-10-12T16:26:24.931Z,19.30
2018-10-12T16:28:53.375Z,14.43
2018-10-12T16:31:21.766Z,10.73
2018-10-12T16:33:50.172Z,9.47
2018-10-12T16:36:18.787Z,12.30
2018-10-12T16:38:47.101Z,13.07
2018-10-12T16:41:15.511Z,11.37
2018-10-12T16:43:44.360Z,9.17
2018-10-12T16:46:12.768Z,7.97
2018-10-12T16:48:41.258Z,7.13
2018-10-12T16:51:09.637Z,7.57
2018-10-12T16:53:38.094Z,13.13
2018-10-12T16:56:06.647Z,12.27
2018-10-12T16:58:35.075Z,7.67
2018-10-12T17:01:03.471Z,8.47
2018-10-12T17:03:31.887Z,8.80
2018-10-12T17:06:00.358Z,12.97
2018-10-12T17:08:28.723Z,11.57
2018-10-12T17:10:57.151Z,22.17
2018-10-12T17:13:25.592Z,18.93
2018-10-12T17:15:54.036Z,12.30
2018-10-12T17:18:22.467Z,16.37
2018-10-12T17:20:50.804Z,12.63
2018-10-12T17:23:19.222Z,9.37
2018-10-12T17:25:47.570Z,13.83
2018-10-12T17:28:16.190Z,11.37
2018-10-12T17:30:44.706Z,10.57
2018-10-12T17:33:13.120Z,9.70
2018-10-12T17:35:41.480Z,13.27
2018-10-12T17:38:09.890Z,16.40
2018-10-12T17:40:38.336Z,9.33
2018-10-12T17:43:06.581Z,12.80
2018-10-12T17:45:34.918Z,11.20
2018-10-12T17:48:03.333Z,8.43
2018-10-12T17:50:31.774Z,12.43
2018-10-12T17:53:00.144Z,9.23
2018-10-12T17:55:28.555Z,13.50
2018-10-12T17:57:56.868Z,16.33
2018-10-12T18:00:25.350Z,12.70
2018-10-12T18:02:54.049Z,12.97
2018-10-12T18:05:22.520Z,15.63
2018-10-12T18:07:50.941Z,15.40
2018-10-12T18:10:19.312Z,17.40
2018-10-12T18:12:47.684Z,11.90
2018-10-12T18:15:16.081Z,17.37
2018-10-12T18:17:44.458Z,12.33
2018-10-12T18:20:13.109Z,15.97
2018-10-12T18:22:41.693Z,13.83
2018-10-12T18:25:10.183Z,16.13
2018-10-12T18:27:38.643Z,10.97
2018-10-12T18:30:07.134Z,8.80
2018-10-12T18:32:35.528Z,9.50
2018-10-12T18:35:03.960Z,9.07
2018-10-12T18:37:32.359Z,9.90
2018-10-12T18:40:00.815Z,13.40
2018-10-12T18:42:29.238Z,12.63
2018-10-12T18:44:57.658Z,9.80
2018-10-12T18:47:26.063Z,10.17
2018-10-12T18:49:54.510Z,10.77
2018-10-12T18:52:22.935Z,13.23
2018-10-12T18:54:51.360Z,8.70
2018-10-12T18:57:19.744Z,11.40
2018-10-12T18:59:48.228Z,17.03
2018-10-12T19:02:16.732Z,13.53
2018-10-12T19:04:45.200Z,15.10
2018-10-12T19:07:13.456Z,10.83
2018-10-12T19:09:41.832Z,11.23
2018-10-12T19:12:10.348Z,13.70
2018-10-12T19:14:38.673Z,13.40
2018-10-12T19:17:07.142Z,10.60
2018-10-12T19:19:35.523Z,13.20
2018-10-12T19:22:03.896Z,10.90
2018-10-12T19:24:32.517Z,16.73
2018-10-12T19:27:00.960Z,12.57
2018-10-12T19:29:29.753Z,13.67
2018-10-12T19:31:58.255Z,13.40
2018-10-12T19:34:26.564Z,14.53
2018-10-12T19:36:55.012Z,12.57
2018-10-12T19:39:23.424Z,13.33
2018-10-12T19:41:51.782Z,14.83
2018-10-12T19:44:20.207Z,17.03
2018-10-12T19:46:48.647Z,14.73
2018-10-12T19:49:17.048Z,9.10
2018-10-12T19:51:45.445Z,11.43
2018-10-12T19:54:13.976Z,13.20
2018-10-12T19:56:42.384Z,12.73
2018-10-12T19:59:10.930Z,12.93
2018-10-12T20:01:39.297Z,14.90
2018-10-12T20:04:07.643Z,13.83
2018-10-12T20:06:36.104Z,17.23
2018-10-12T20:09:05.576Z,18.97
2018-10-12T20:11:34.241Z,13.13
2018-10-12T20:14:02.664Z,12.87
2018-10-12T20:16:31.036Z,12.00
2018-10-12T20:18:59.406Z,15.10
2018-10-12T20:21:27.904Z,14.70
2018-10-12T20:23:56.316Z,17.17
2018-10-12T20:26:24.656Z,16.40
2018-10-12T20:28:53.031Z,17.33
2018-10-12T20:31:21.725Z,16.27
2018-10-12T20:33:50.207Z,18.00
2018-10-12T20:36:18.627Z,19.67
2018-10-12T20:38:47.137Z,30.00
2018-10-12T20:41:15.528Z,29.30
2018-10-12T20:43:44.008Z,30.00
2018-10-12T20:46:13.127Z,23.40
2018-10-12T20:48:41.564Z,25.87
2018-10-12T20:51:10.013Z,22.37
2018-10-12T20:53:38.484Z,23.97
2018-10-12T20:56:07.516Z,21.93
2018-10-12T20:58:38.377Z,21.33
2018-10-12T21:01:09.539Z,18.90
2018-10-12T21:03:38.208Z,17.83
2018-10-12T21:06:07.642Z,15.90
2018-10-12T21:08:36.394Z,13.90
2018-10-12T21:11:04.905Z,14.80
2018-10-12T21:13:33.257Z,14.27
2018-10-12T21:16:01.655Z,16.27
2018-10-12T21:18:30.000Z,15.70
2018-10-12T21:20:58.436Z,13.40
2018-10-12T21:23:26.874Z,15.87
2018-10-12T21:25:55.325Z,14.83
2018-10-12T21:28:24.413Z,12.33
2018-10-12T21:30:52.792Z,12.90
2018-10-12T21:33:21.277Z,11.40
2018-10-12T21:35:49.798Z,10.27
2018-10-12T21:38:18.248Z,13.03
2018-10-12T21:40:46.709Z,11.20
2018-10-12T21:43:15.163Z,18.80
2018-10-12T21:45:43.543Z,17.17
2018-10-12T21:48:12.482Z,17.13
2018-10-12T21:50:41.020Z,15.37
2018-10-12T21:53:09.335Z,15.67
2018-10-12T21:55:37.881Z,14.40
2018-10-12T21:58:06.641Z,13.40
2018-10-12T22:00:35.086Z,14.57
2018-10-12T22:03:03.604Z,12.57
2018-10-12T22:05:32.300Z,16.73
2018-10-12T22:08:00.716Z,16.93
2018-10-12T22:10:29.131Z,11.67
2018-10-12T22:12:57.571Z,13.40
2018-10-12T22:15:25.931Z,13.00
2018-10-12T22:17:54.328Z,13.23
2018-10-12T22:20:22.684Z,15.67
2018-10-12T22:22:51.100Z,10.80
2018-10-12T22:25:19.423Z,14.57
2018-10-12T22:27:47.844Z,13.00
2018-10-12T22:30:16.238Z,14.87
2018-10-12T22:32:44.597Z,18.60
2018-10-12T22:35:12.956Z,14.20
2018-10-12T22:37:41.413Z,15.07
2018-10-12T22:40:09.837Z,14.60
2018-10-12T22:42:38.293Z,13.23
2018-10-12T22:45:06.716Z,12.27
2018-10-12T22:47:35.062Z,14.40
2018-10-12T22:50:03.487Z,10.73
2018-10-12T22:52:32.027Z,16.37
2018-10-12T22:55:00.399Z,16.13
2018-10-12T22:57:28.787Z,16.83
2018-10-12T22:59:57.189Z,15.53
2018-10-12T23:02:25.676Z,15.03
2018-10-12T23:04:54.148Z,13.37
2018-10-12T23:07:22.609Z,14.87
2018-10-12T23:09:51.218Z,14.13
2018-10-12T23:12:19.570Z,14.33
2018-10-12T23:14:47.949Z,10.80
2018-10-12T23:17:16.364Z,12.53
2018-10-12T23:19:44.672Z,13.20
2018-10-12T23:22:13.208Z,10.90
2018-10-12T23:24:41.548Z,11.10
2018-10-12T23:27:09.908Z,11.87
2018-10-12T23:29:38.352Z,11.63
2018-10-12T23:32:06.712Z,14.73
2018-10-12T23:34:35.102Z,13.20
2018-10-12T23:37:03.525Z,11.00
2018-10-12T23:39:32.047Z,11.33
2018-10-12T23:42:00.415Z,12.53
2018-10-12T23:44:28.895Z,11.93
2018-10-12T23:46:57.264Z,9.90
2018-10-12T23:49:25.714Z,11.50
2018-10-12T23:51:58.022Z,12.80
2018-10-12T23:54:31.220Z,15.23
2018-10-12T23:57:04.529Z,12.37
2018-10-12T23:59:37.720Z,13.73
